Highland Falls, New York
Current Conditions -  °F | °C
As of 7:45 AM on Thursday 30 Oct 2014 (Local Time) from KSWF Reporting Station
Scattered Clouds Scattered Clouds  
Wind Chill: 37°   Ceiling: Unl
Heat Index: 41°   Visibility: 15mi
Dew Point: 41°   Wind: 6mph
Humidity: 100%   Direction: 260°W
Pressure: 29.98"   Gusts: NA
Location:  41.37°N, 73.97°W
Report Text: KSWF 301145Z 26005KT 15SM SCT070 05/05 A2998
Loading
Personal Weather Stations






























Interactive Weather Map New forecast layout! Learn more

10-Day Weather Forecast

Advertisements
Track Severe Weather on mobile